sensor_id;sensor_type;location;lat;lon;timestamp;P1;durP1;ratioP1;P2;durP2;ratioP2
7334;SDS011;3708;42.632;23.378;2023-05-10T00:00:32;6.30;;;5.70;;
7334;SDS011;3708;42.632;23.378;2023-05-10T00:03:01;6.83;;;6.20;;
7334;SDS011;3708;42.632;23.378;2023-05-10T00:05:29;6.37;;;5.77;;
7334;SDS011;3708;42.632;23.378;2023-05-10T00:07:56;6.23;;;5.63;;
7334;SDS011;3708;42.632;23.378;2023-05-10T00:10:23;5.93;;;5.33;;
7334;SDS011;3708;42.632;23.378;2023-05-10T00:12:52;5.50;;;5.00;;
7334;SDS011;3708;42.632;23.378;2023-05-10T00:15:19;5.93;;;5.33;;
7334;SDS011;3708;42.632;23.378;2023-05-10T00:17:47;6.03;;;5.23;;
7334;SDS011;3708;42.632;23.378;2023-05-10T00:20:14;8.27;;;5.27;;
7334;SDS011;3708;42.632;23.378;2023-05-10T00:22:41;6.30;;;5.70;;
7334;SDS011;3708;42.632;23.378;2023-05-10T00:25:08;6.40;;;5.80;;
7334;SDS011;3708;42.632;23.378;2023-05-10T00:27:35;6.23;;;5.63;;
7334;SDS011;3708;42.632;23.378;2023-05-10T00:30:02;6.60;;;5.90;;
7334;SDS011;3708;42.632;23.378;2023-05-10T00:32:29;7.40;;;6.70;;
7334;SDS011;3708;42.632;23.378;2023-05-10T00:34:58;7.20;;;6.50;;
7334;SDS011;3708;42.632;23.378;2023-05-10T00:37:25;7.27;;;6.50;;
7334;SDS011;3708;42.632;23.378;2023-05-10T00:39:51;8.37;;;6.93;;
7334;SDS011;3708;42.632;23.378;2023-05-10T00:42:18;7.53;;;6.30;;
7334;SDS011;3708;42.632;23.378;2023-05-10T00:44:45;7.37;;;6.53;;
7334;SDS011;3708;42.632;23.378;2023-05-10T00:47:12;6.20;;;5.60;;
7334;SDS011;3708;42.632;23.378;2023-05-10T00:49:39;6.50;;;5.90;;
7334;SDS011;3708;42.632;23.378;2023-05-10T00:52:08;6.83;;;5.80;;
7334;SDS011;3708;42.632;23.378;2023-05-10T00:54:35;7.03;;;6.43;;
7334;SDS011;3708;42.632;23.378;2023-05-10T00:57:02;6.97;;;6.27;;
7334;SDS011;3708;42.632;23.378;2023-05-10T00:59:29;6.60;;;5.73;;
7334;SDS011;3708;42.632;23.378;2023-05-10T01:01:57;6.90;;;6.20;;
7334;SDS011;3708;42.632;23.378;2023-05-10T01:04:24;7.53;;;6.77;;
7334;SDS011;3708;42.632;23.378;2023-05-10T01:06:51;7.57;;;6.47;;
7334;SDS011;3708;42.632;23.378;2023-05-10T01:09:20;7.80;;;6.93;;
7334;SDS011;3708;42.632;23.378;2023-05-10T01:11:48;8.00;;;6.80;;
7334;SDS011;3708;42.632;23.378;2023-05-10T01:14:16;7.37;;;6.67;;
7334;SDS011;3708;42.632;23.378;2023-05-10T01:16:45;7.53;;;6.67;;
7334;SDS011;3708;42.632;23.378;2023-05-10T01:19:17;7.27;;;6.57;;
7334;SDS011;3708;42.632;23.378;2023-05-10T01:21:48;6.97;;;6.27;;
7334;SDS011;3708;42.632;23.378;2023-05-10T01:27:20;7.33;;;6.57;;
7334;SDS011;3708;42.632;23.378;2023-05-10T01:33:19;7.27;;;6.07;;
7334;SDS011;3708;42.632;23.378;2023-05-10T01:35:51;7.10;;;6.07;;
7334;SDS011;3708;42.632;23.378;2023-05-10T01:38:29;6.13;;;5.53;;
7334;SDS011;3708;42.632;23.378;2023-05-10T01:41:07;6.00;;;5.40;;
7334;SDS011;3708;42.632;23.378;2023-05-10T01:43:48;5.20;;;4.70;;
7334;SDS011;3708;42.632;23.378;2023-05-10T01:47:03;5.40;;;4.90;;
7334;SDS011;3708;42.632;23.378;2023-05-10T01:49:23;4.60;;;4.20;;
7334;SDS011;3708;42.632;23.378;2023-05-10T01:51:53;6.07;;;5.47;;
7334;SDS011;3708;42.632;23.378;2023-05-10T01:54:26;6.70;;;5.17;;
7334;SDS011;3708;42.632;23.378;2023-05-10T01:56:55;4.53;;;4.13;;
7334;SDS011;3708;42.632;23.378;2023-05-10T01:59:28;6.37;;;5.77;;
7334;SDS011;3708;42.632;23.378;2023-05-10T02:02:01;6.73;;;4.80;;
7334;SDS011;3708;42.632;23.378;2023-05-10T02:04:30;9.90;;;4.77;;
7334;SDS011;3708;42.632;23.378;2023-05-10T02:09:44;5.43;;;4.93;;
7334;SDS011;3708;42.632;23.378;2023-05-10T02:12:13;5.90;;;4.70;;
7334;SDS011;3708;42.632;23.378;2023-05-10T02:14:41;5.93;;;4.90;;
7334;SDS011;3708;42.632;23.378;2023-05-10T02:17:09;4.80;;;4.23;;
7334;SDS011;3708;42.632;23.378;2023-05-10T02:19:39;6.77;;;4.73;;
7334;SDS011;3708;42.632;23.378;2023-05-10T02:22:07;7.93;;;5.03;;
7334;SDS011;3708;42.632;23.378;2023-05-10T02:24:36;7.37;;;4.77;;
7334;SDS011;3708;42.632;23.378;2023-05-10T02:27:03;5.97;;;4.90;;
7334;SDS011;3708;42.632;23.378;2023-05-10T02:29:32;5.97;;;4.63;;
7334;SDS011;3708;42.632;23.378;2023-05-10T02:32:01;6.67;;;4.87;;
7334;SDS011;3708;42.632;23.378;2023-05-10T02:34:29;6.20;;;5.23;;
7334;SDS011;3708;42.632;23.378;2023-05-10T02:36:59;7.60;;;5.60;;
7334;SDS011;3708;42.632;23.378;2023-05-10T02:39:29;7.50;;;5.03;;
7334;SDS011;3708;42.632;23.378;2023-05-10T02:41:57;4.93;;;4.40;;
7334;SDS011;3708;42.632;23.378;2023-05-10T02:44:28;6.47;;;4.97;;
7334;SDS011;3708;42.632;23.378;2023-05-10T02:46:57;6.20;;;4.53;;
7334;SDS011;3708;42.632;23.378;2023-05-10T02:49:25;7.50;;;4.87;;
7334;SDS011;3708;42.632;23.378;2023-05-10T02:51:55;8.20;;;5.60;;
7334;SDS011;3708;42.632;23.378;2023-05-10T02:54:29;6.17;;;5.00;;
7334;SDS011;3708;42.632;23.378;2023-05-10T02:57:00;6.93;;;5.27;;
7334;SDS011;3708;42.632;23.378;2023-05-10T02:59:31;9.17;;;5.40;;
7334;SDS011;3708;42.632;23.378;2023-05-10T03:02:00;5.63;;;4.53;;
7334;SDS011;3708;42.632;23.378;2023-05-10T03:04:28;6.67;;;5.67;;
7334;SDS011;3708;42.632;23.378;2023-05-10T03:06:55;9.37;;;6.00;;
7334;SDS011;3708;42.632;23.378;2023-05-10T03:09:21;9.07;;;5.67;;
7334;SDS011;3708;42.632;23.378;2023-05-10T03:11:53;7.70;;;5.50;;
7334;SDS011;3708;42.632;23.378;2023-05-10T03:14:31;6.93;;;6.23;;
7334;SDS011;3708;42.632;23.378;2023-05-10T03:17:10;6.90;;;6.07;;
7334;SDS011;3708;42.632;23.378;2023-05-10T03:19:43;6.43;;;5.80;;
7334;SDS011;3708;42.632;23.378;2023-05-10T03:22:19;7.17;;;5.77;;
7334;SDS011;3708;42.632;23.378;2023-05-10T03:24:50;6.13;;;5.10;;
7334;SDS011;3708;42.632;23.378;2023-05-10T03:27:23;5.57;;;4.57;;
7334;SDS011;3708;42.632;23.378;2023-05-10T03:29:53;6.77;;;5.17;;
7334;SDS011;3708;42.632;23.378;2023-05-10T03:32:22;5.33;;;4.83;;
7334;SDS011;3708;42.632;23.378;2023-05-10T03:34:49;6.10;;;4.97;;
7334;SDS011;3708;42.632;23.378;2023-05-10T03:37:15;8.50;;;5.23;;
7334;SDS011;3708;42.632;23.378;2023-05-10T03:39:42;6.63;;;4.70;;
7334;SDS011;3708;42.632;23.378;2023-05-10T03:42:09;9.57;;;5.57;;
7334;SDS011;3708;42.632;23.378;2023-05-10T03:44:38;7.53;;;5.43;;
7334;SDS011;3708;42.632;23.378;2023-05-10T03:47:06;6.43;;;4.93;;
7334;SDS011;3708;42.632;23.378;2023-05-10T03:49:32;6.93;;;4.33;;
7334;SDS011;3708;42.632;23.378;2023-05-10T03:51:59;5.60;;;4.77;;
7334;SDS011;3708;42.632;23.378;2023-05-10T03:54:26;5.47;;;4.47;;
7334;SDS011;3708;42.632;23.378;2023-05-10T03:56:53;5.13;;;4.43;;
7334;SDS011;3708;42.632;23.378;2023-05-10T03:59:22;5.73;;;4.57;;
7334;SDS011;3708;42.632;23.378;2023-05-10T04:01:53;9.87;;;4.43;;
7334;SDS011;3708;42.632;23.378;2023-05-10T04:04:20;6.57;;;5.00;;
7334;SDS011;3708;42.632;23.378;2023-05-10T04:06:48;6.40;;;4.60;;
7334;SDS011;3708;42.632;23.378;2023-05-10T04:09:15;6.47;;;4.77;;
7334;SDS011;3708;42.632;23.378;2023-05-10T04:11:42;6.00;;;5.00;;
7334;SDS011;3708;42.632;23.378;2023-05-10T04:14:09;9.50;;;5.70;;
7334;SDS011;3708;42.632;23.378;2023-05-10T04:16:36;7.57;;;4.63;;
7334;SDS011;3708;42.632;23.378;2023-05-10T04:19:05;6.77;;;4.93;;
7334;SDS011;3708;42.632;23.378;2023-05-10T04:21:32;5.80;;;4.97;;
7334;SDS011;3708;42.632;23.378;2023-05-10T04:23:58;5.83;;;4.40;;
7334;SDS011;3708;42.632;23.378;2023-05-10T04:26:25;6.30;;;4.53;;
7334;SDS011;3708;42.632;23.378;2023-05-10T04:28:53;7.07;;;5.00;;
7334;SDS011;3708;42.632;23.378;2023-05-10T04:31:23;6.73;;;4.80;;
7334;SDS011;3708;42.632;23.378;2023-05-10T04:33:51;9.47;;;5.47;;
7334;SDS011;3708;42.632;23.378;2023-05-10T04:36:20;4.97;;;4.20;;
7334;SDS011;3708;42.632;23.378;2023-05-10T04:38:46;6.23;;;4.80;;
7334;SDS011;3708;42.632;23.378;2023-05-10T04:41:13;7.77;;;4.77;;
7334;SDS011;3708;42.632;23.378;2023-05-10T04:43:40;6.07;;;5.23;;
7334;SDS011;3708;42.632;23.378;2023-05-10T04:46:07;5.47;;;4.87;;
7334;SDS011;3708;42.632;23.378;2023-05-10T04:48:34;5.73;;;4.97;;
7334;SDS011;3708;42.632;23.378;2023-05-10T04:51:01;8.87;;;5.53;;
7334;SDS011;3708;42.632;23.378;2023-05-10T04:53:30;6.03;;;4.43;;
7334;SDS011;3708;42.632;23.378;2023-05-10T04:55:57;8.23;;;5.53;;
7334;SDS011;3708;42.632;23.378;2023-05-10T04:58:24;6.57;;;5.43;;
7334;SDS011;3708;42.632;23.378;2023-05-10T05:00:51;5.63;;;4.83;;
7334;SDS011;3708;42.632;23.378;2023-05-10T05:03:17;5.67;;;5.17;;
7334;SDS011;3708;42.632;23.378;2023-05-10T05:05:44;7.20;;;4.60;;
7334;SDS011;3708;42.632;23.378;2023-05-10T05:08:11;6.23;;;5.63;;
7334;SDS011;3708;42.632;23.378;2023-05-10T05:10:39;8.73;;;5.97;;
7334;SDS011;3708;42.632;23.378;2023-05-10T05:13:06;7.10;;;5.67;;
7334;SDS011;3708;42.632;23.378;2023-05-10T05:15:33;5.83;;;5.17;;
7334;SDS011;3708;42.632;23.378;2023-05-10T05:18:00;6.70;;;6.00;;
7334;SDS011;3708;42.632;23.378;2023-05-10T05:20:27;7.60;;;5.30;;
7334;SDS011;3708;42.632;23.378;2023-05-10T05:22:54;6.50;;;5.60;;
7334;SDS011;3708;42.632;23.378;2023-05-10T05:25:21;6.53;;;5.83;;
7334;SDS011;3708;42.632;23.378;2023-05-10T05:27:49;6.43;;;5.20;;
7334;SDS011;3708;42.632;23.378;2023-05-10T05:30:16;5.73;;;5.13;;
7334;SDS011;3708;42.632;23.378;2023-05-10T05:32:43;6.40;;;5.63;;
7334;SDS011;3708;42.632;23.378;2023-05-10T05:35:09;7.00;;;5.83;;
7334;SDS011;3708;42.632;23.378;2023-05-10T05:37:36;8.20;;;6.53;;
7334;SDS011;3708;42.632;23.378;2023-05-10T05:40:03;6.87;;;5.63;;
7334;SDS011;3708;42.632;23.378;2023-05-10T05:42:31;7.47;;;5.97;;
7334;SDS011;3708;42.632;23.378;2023-05-10T05:44:59;7.50;;;6.27;;
7334;SDS011;3708;42.632;23.378;2023-05-10T05:47:26;7.47;;;6.20;;
7334;SDS011;3708;42.632;23.378;2023-05-10T05:49:53;9.73;;;6.33;;
7334;SDS011;3708;42.632;23.378;2023-05-10T05:52:20;6.53;;;5.83;;
7334;SDS011;3708;42.632;23.378;2023-05-10T05:54:47;8.00;;;6.90;;
7334;SDS011;3708;42.632;23.378;2023-05-10T05:57:14;10.07;;;6.33;;
7334;SDS011;3708;42.632;23.378;2023-05-10T05:59:41;9.13;;;7.83;;
7334;SDS011;3708;42.632;23.378;2023-05-10T06:02:10;7.97;;;7.17;;
7334;SDS011;3708;42.632;23.378;2023-05-10T06:04:37;9.90;;;7.57;;
7334;SDS011;3708;42.632;23.378;2023-05-10T06:07:04;8.20;;;7.30;;
7334;SDS011;3708;42.632;23.378;2023-05-10T06:09:31;8.27;;;7.03;;
7334;SDS011;3708;42.632;23.378;2023-05-10T06:11:58;10.77;;;7.60;;
7334;SDS011;3708;42.632;23.378;2023-05-10T06:14:25;8.77;;;7.00;;
7334;SDS011;3708;42.632;23.378;2023-05-10T06:16:52;9.83;;;7.57;;
7334;SDS011;3708;42.632;23.378;2023-05-10T06:19:20;10.97;;;7.50;;
7334;SDS011;3708;42.632;23.378;2023-05-10T06:21:47;12.03;;;7.47;;
7334;SDS011;3708;42.632;23.378;2023-05-10T06:24:14;8.83;;;7.80;;
7334;SDS011;3708;42.632;23.378;2023-05-10T06:26:41;8.60;;;7.37;;
7334;SDS011;3708;42.632;23.378;2023-05-10T06:29:08;10.63;;;7.87;;
7334;SDS011;3708;42.632;23.378;2023-05-10T06:31:35;9.63;;;7.83;;
7334;SDS011;3708;42.632;23.378;2023-05-10T06:34:01;9.67;;;7.67;;
7334;SDS011;3708;42.632;23.378;2023-05-10T06:36:30;10.80;;;8.63;;
7334;SDS011;3708;42.632;23.378;2023-05-10T06:38:56;9.07;;;7.63;;
7334;SDS011;3708;42.632;23.378;2023-05-10T06:41:23;10.33;;;7.67;;
7334;SDS011;3708;42.632;23.378;2023-05-10T06:43:50;10.60;;;7.30;;
7334;SDS011;3708;42.632;23.378;2023-05-10T06:46:17;11.33;;;7.70;;
7334;SDS011;3708;42.632;23.378;2023-05-10T06:48:44;10.03;;;7.27;;
7334;SDS011;3708;42.632;23.378;2023-05-10T06:51:11;12.07;;;7.97;;
7334;SDS011;3708;42.632;23.378;2023-05-10T06:53:39;8.50;;;7.07;;
7334;SDS011;3708;42.632;23.378;2023-05-10T06:56:06;13.13;;;8.77;;
7334;SDS011;3708;42.632;23.378;2023-05-10T06:58:32;9.30;;;7.70;;
7334;SDS011;3708;42.632;23.378;2023-05-10T07:01:02;12.17;;;7.13;;
7334;SDS011;3708;42.632;23.378;2023-05-10T07:03:30;8.57;;;7.53;;
7334;SDS011;3708;42.632;23.378;2023-05-10T07:06:00;11.37;;;8.27;;
7334;SDS011;3708;42.632;23.378;2023-05-10T07:08:29;9.23;;;7.13;;
7334;SDS011;3708;42.632;23.378;2023-05-10T07:11:00;9.00;;;7.97;;
7334;SDS011;3708;42.632;23.378;2023-05-10T07:13:28;7.73;;;6.80;;
7334;SDS011;3708;42.632;23.378;2023-05-10T07:15:55;10.57;;;7.70;;
7334;SDS011;3708;42.632;23.378;2023-05-10T07:18:22;9.60;;;6.90;;
7334;SDS011;3708;42.632;23.378;2023-05-10T07:20:49;9.23;;;7.63;;
7334;SDS011;3708;42.632;23.378;2023-05-10T07:23:16;7.87;;;6.67;;
7334;SDS011;3708;42.632;23.378;2023-05-10T07:25:44;10.77;;;7.97;;
7334;SDS011;3708;42.632;23.378;2023-05-10T07:28:13;8.90;;;7.97;;
7334;SDS011;3708;42.632;23.378;2023-05-10T07:30:40;9.20;;;7.60;;
7334;SDS011;3708;42.632;23.378;2023-05-10T07:33:07;12.60;;;7.20;;
7334;SDS011;3708;42.632;23.378;2023-05-10T07:35:35;10.70;;;7.83;;
7334;SDS011;3708;42.632;23.378;2023-05-10T07:38:02;15.33;;;8.97;;
7334;SDS011;3708;42.632;23.378;2023-05-10T07:40:29;17.70;;;9.57;;
7334;SDS011;3708;42.632;23.378;2023-05-10T07:42:56;10.63;;;8.20;;
7334;SDS011;3708;42.632;23.378;2023-05-10T07:45:24;11.53;;;8.07;;
7334;SDS011;3708;42.632;23.378;2023-05-10T07:47:51;9.80;;;8.40;;
7334;SDS011;3708;42.632;23.378;2023-05-10T07:50:18;11.53;;;8.43;;
7334;SDS011;3708;42.632;23.378;2023-05-10T07:52:46;11.40;;;8.93;;
7334;SDS011;3708;42.632;23.378;2023-05-10T07:55:13;9.43;;;8.33;;
7334;SDS011;3708;42.632;23.378;2023-05-10T07:57:40;12.30;;;8.97;;
7334;SDS011;3708;42.632;23.378;2023-05-10T08:00:07;8.83;;;7.93;;
7334;SDS011;3708;42.632;23.378;2023-05-10T08:02:36;8.93;;;8.03;;
7334;SDS011;3708;42.632;23.378;2023-05-10T08:05:02;9.50;;;8.03;;
7334;SDS011;3708;42.632;23.378;2023-05-10T08:07:30;10.00;;;8.10;;
7334;SDS011;3708;42.632;23.378;2023-05-10T08:09:57;9.57;;;8.57;;
7334;SDS011;3708;42.632;23.378;2023-05-10T08:12:24;9.90;;;8.47;;
7334;SDS011;3708;42.632;23.378;2023-05-10T08:14:50;12.27;;;8.87;;
7334;SDS011;3708;42.632;23.378;2023-05-10T08:17:17;12.70;;;10.23;;
7334;SDS011;3708;42.632;23.378;2023-05-10T08:19:45;10.47;;;8.37;;
7334;SDS011;3708;42.632;23.378;2023-05-10T08:22:12;9.83;;;8.03;;
7334;SDS011;3708;42.632;23.378;2023-05-10T08:24:39;9.70;;;7.43;;
7334;SDS011;3708;42.632;23.378;2023-05-10T08:27:07;10.67;;;7.33;;
7334;SDS011;3708;42.632;23.378;2023-05-10T08:29:34;12.27;;;8.40;;
7334;SDS011;3708;42.632;23.378;2023-05-10T08:32:01;9.37;;;8.03;;
7334;SDS011;3708;42.632;23.378;2023-05-10T08:34:27;10.03;;;7.77;;
7334;SDS011;3708;42.632;23.378;2023-05-10T08:36:57;11.67;;;8.13;;
7334;SDS011;3708;42.632;23.378;2023-05-10T08:39:24;12.13;;;8.67;;
7334;SDS011;3708;42.632;23.378;2023-05-10T08:41:51;12.57;;;8.63;;
7334;SDS011;3708;42.632;23.378;2023-05-10T08:44:20;8.40;;;7.53;;
7334;SDS011;3708;42.632;23.378;2023-05-10T08:46:47;9.60;;;7.83;;
7334;SDS011;3708;42.632;23.378;2023-05-10T08:49:19;8.60;;;7.40;;
7334;SDS011;3708;42.632;23.378;2023-05-10T08:51:48;9.00;;;7.43;;
7334;SDS011;3708;42.632;23.378;2023-05-10T08:54:21;11.77;;;7.93;;
7334;SDS011;3708;42.632;23.378;2023-05-10T08:56:48;11.90;;;7.73;;
7334;SDS011;3708;42.632;23.378;2023-05-10T08:59:15;8.00;;;7.20;;
7334;SDS011;3708;42.632;23.378;2023-05-10T09:01:43;10.43;;;8.43;;
7334;SDS011;3708;42.632;23.378;2023-05-10T09:04:13;9.03;;;8.13;;
7334;SDS011;3708;42.632;23.378;2023-05-10T09:06:40;9.60;;;8.03;;
7334;SDS011;3708;42.632;23.378;2023-05-10T09:09:07;10.10;;;8.20;;
7334;SDS011;3708;42.632;23.378;2023-05-10T09:11:35;11.47;;;8.30;;
7334;SDS011;3708;42.632;23.378;2023-05-10T09:14:03;10.27;;;8.57;;
7334;SDS011;3708;42.632;23.378;2023-05-10T09:16:30;11.43;;;8.67;;
7334;SDS011;3708;42.632;23.378;2023-05-10T09:18:57;12.17;;;9.07;;
7334;SDS011;3708;42.632;23.378;2023-05-10T09:21:24;11.93;;;9.33;;
7334;SDS011;3708;42.632;23.378;2023-05-10T09:23:51;9.80;;;8.80;;
7334;SDS011;3708;42.632;23.378;2023-05-10T09:26:21;11.13;;;8.97;;
7334;SDS011;3708;42.632;23.378;2023-05-10T09:28:54;12.77;;;9.37;;
7334;SDS011;3708;42.632;23.378;2023-05-10T09:31:21;10.60;;;8.80;;
7334;SDS011;3708;42.632;23.378;2023-05-10T09:33:49;11.87;;;8.43;;
7334;SDS011;3708;42.632;23.378;2023-05-10T09:36:16;10.10;;;9.03;;
7334;SDS011;3708;42.632;23.378;2023-05-10T09:38:47;14.73;;;9.13;;
7334;SDS011;3708;42.632;23.378;2023-05-10T09:41:15;10.00;;;9.00;;
7334;SDS011;3708;42.632;23.378;2023-05-10T09:43:43;10.20;;;9.17;;
7334;SDS011;3708;42.632;23.378;2023-05-10T09:46:11;14.17;;;8.30;;
7334;SDS011;3708;42.632;23.378;2023-05-10T09:48:40;8.77;;;7.87;;
7334;SDS011;3708;42.632;23.378;2023-05-10T09:51:08;8.47;;;7.57;;
7334;SDS011;3708;42.632;23.378;2023-05-10T09:53:35;9.20;;;8.30;;
7334;SDS011;3708;42.632;23.378;2023-05-10T09:56:02;9.33;;;8.33;;
7334;SDS011;3708;42.632;23.378;2023-05-10T09:58:29;11.53;;;9.30;;
7334;SDS011;3708;42.632;23.378;2023-05-10T10:00:56;10.00;;;8.43;;
7334;SDS011;3708;42.632;23.378;2023-05-10T10:03:25;10.07;;;8.13;;
7334;SDS011;3708;42.632;23.378;2023-05-10T10:05:52;11.10;;;8.23;;
7334;SDS011;3708;42.632;23.378;2023-05-10T10:08:21;8.97;;;7.60;;
7334;SDS011;3708;42.632;23.378;2023-05-10T10:10:48;12.03;;;8.90;;
7334;SDS011;3708;42.632;23.378;2023-05-10T10:13:15;7.73;;;6.93;;
7334;SDS011;3708;42.632;23.378;2023-05-10T10:15:42;9.53;;;7.47;;
7334;SDS011;3708;42.632;23.378;2023-05-10T10:18:12;8.50;;;7.17;;
7334;SDS011;3708;42.632;23.378;2023-05-10T10:20:41;7.90;;;7.07;;
7334;SDS011;3708;42.632;23.378;2023-05-10T10:23:08;9.93;;;6.80;;
7334;SDS011;3708;42.632;23.378;2023-05-10T10:25:35;7.80;;;7.00;;
7334;SDS011;3708;42.632;23.378;2023-05-10T10:28:09;7.87;;;6.80;;
7334;SDS011;3708;42.632;23.378;2023-05-10T10:30:44;6.90;;;6.20;;
7334;SDS011;3708;42.632;23.378;2023-05-10T10:36:19;12.93;;;7.73;;
7334;SDS011;3708;42.632;23.378;2023-05-10T10:38:56;11.43;;;6.90;;
7334;SDS011;3708;42.632;23.378;2023-05-10T10:41:32;10.47;;;7.07;;
7334;SDS011;3708;42.632;23.378;2023-05-10T10:47:01;10.03;;;6.73;;
7334;SDS011;3708;42.632;23.378;2023-05-10T10:49:31;9.97;;;7.20;;
7334;SDS011;3708;42.632;23.378;2023-05-10T10:52:17;7.33;;;6.60;;
7334;SDS011;3708;42.632;23.378;2023-05-10T10:54:51;8.87;;;6.37;;
7334;SDS011;3708;42.632;23.378;2023-05-10T10:57:20;11.17;;;6.73;;
7334;SDS011;3708;42.632;23.378;2023-05-10T10:59:47;10.50;;;5.83;;
7334;SDS011;3708;42.632;23.378;2023-05-10T11:02:32;9.17;;;6.90;;
7334;SDS011;3708;42.632;23.378;2023-05-10T11:05:00;11.57;;;6.70;;
7334;SDS011;3708;42.632;23.378;2023-05-10T11:08:13;7.10;;;5.97;;
7334;SDS011;3708;42.632;23.378;2023-05-10T11:10:51;7.63;;;6.17;;
7334;SDS011;3708;42.632;23.378;2023-05-10T11:13:29;7.73;;;6.27;;
7334;SDS011;3708;42.632;23.378;2023-05-10T11:15:57;9.20;;;6.10;;
7334;SDS011;3708;42.632;23.378;2023-05-10T11:18:25;8.53;;;6.03;;
7334;SDS011;3708;42.632;23.378;2023-05-10T11:20:55;12.00;;;6.23;;
7334;SDS011;3708;42.632;23.378;2023-05-10T11:23:28;8.03;;;6.90;;
7334;SDS011;3708;42.632;23.378;2023-05-10T11:25:57;7.93;;;6.57;;
7334;SDS011;3708;42.632;23.378;2023-05-10T11:28:25;9.53;;;6.33;;
7334;SDS011;3708;42.632;23.378;2023-05-10T11:30:53;7.57;;;6.73;;
7334;SDS011;3708;42.632;23.378;2023-05-10T11:33:21;10.93;;;5.97;;
7334;SDS011;3708;42.632;23.378;2023-05-10T11:35:47;10.63;;;6.43;;
7334;SDS011;3708;42.632;23.378;2023-05-10T11:38:14;10.77;;;7.13;;
7334;SDS011;3708;42.632;23.378;2023-05-10T11:40:43;9.23;;;6.50;;
7334;SDS011;3708;42.632;23.378;2023-05-10T11:43:10;7.43;;;5.93;;
7334;SDS011;3708;42.632;23.378;2023-05-10T11:45:41;6.63;;;5.93;;
7334;SDS011;3708;42.632;23.378;2023-05-10T11:48:09;10.93;;;6.60;;
7334;SDS011;3708;42.632;23.378;2023-05-10T11:50:39;8.63;;;5.77;;
7334;SDS011;3708;42.632;23.378;2023-05-10T11:53:06;7.73;;;6.57;;
7334;SDS011;3708;42.632;23.378;2023-05-10T11:55:35;10.33;;;7.60;;
7334;SDS011;3708;42.632;23.378;2023-05-10T11:58:06;9.83;;;7.23;;
7334;SDS011;3708;42.632;23.378;2023-05-10T12:00:33;9.77;;;7.13;;
7334;SDS011;3708;42.632;23.378;2023-05-10T12:03:01;8.00;;;6.93;;
7334;SDS011;3708;42.632;23.378;2023-05-10T12:05:39;8.77;;;7.53;;
7334;SDS011;3708;42.632;23.378;2023-05-10T12:08:20;8.67;;;7.73;;
7334;SDS011;3708;42.632;23.378;2023-05-10T12:11:04;8.73;;;6.33;;
7334;SDS011;3708;42.632;23.378;2023-05-10T12:13:38;10.80;;;6.73;;
7334;SDS011;3708;42.632;23.378;2023-05-10T12:16:13;9.33;;;8.03;;
7334;SDS011;3708;42.632;23.378;2023-05-10T12:18:47;8.77;;;6.73;;
7334;SDS011;3708;42.632;23.378;2023-05-10T12:21:18;10.87;;;7.20;;
7334;SDS011;3708;42.632;23.378;2023-05-10T12:23:50;9.03;;;7.70;;
7334;SDS011;3708;42.632;23.378;2023-05-10T12:26:21;9.43;;;6.73;;
7334;SDS011;3708;42.632;23.378;2023-05-10T12:31:52;10.23;;;7.57;;
7334;SDS011;3708;42.632;23.378;2023-05-10T12:34:24;16.17;;;7.57;;
7334;SDS011;3708;42.632;23.378;2023-05-10T12:36:52;9.30;;;6.90;;
7334;SDS011;3708;42.632;23.378;2023-05-10T12:39:25;8.17;;;6.90;;
7334;SDS011;3708;42.632;23.378;2023-05-10T12:41:53;10.23;;;7.07;;
7334;SDS011;3708;42.632;23.378;2023-05-10T12:44:24;10.50;;;6.83;;
7334;SDS011;3708;42.632;23.378;2023-05-10T12:47:09;7.03;;;5.90;;
7334;SDS011;3708;42.632;23.378;2023-05-10T12:49:36;11.73;;;6.97;;
7334;SDS011;3708;42.632;23.378;2023-05-10T12:52:04;9.80;;;6.70;;
7334;SDS011;3708;42.632;23.378;2023-05-10T12:54:32;10.63;;;6.90;;
7334;SDS011;3708;42.632;23.378;2023-05-10T12:57:02;7.80;;;7.03;;
7334;SDS011;3708;42.632;23.378;2023-05-10T13:02:29;9.77;;;6.53;;
7334;SDS011;3708;42.632;23.378;2023-05-10T13:04:56;10.50;;;6.63;;
7334;SDS011;3708;42.632;23.378;2023-05-10T13:07:28;10.70;;;7.23;;
7334;SDS011;3708;42.632;23.378;2023-05-10T13:09:58;8.77;;;6.47;;
7334;SDS011;3708;42.632;23.378;2023-05-10T13:12:27;9.57;;;6.07;;
7334;SDS011;3708;42.632;23.378;2023-05-10T13:14:57;6.47;;;5.50;;
7334;SDS011;3708;42.632;23.378;2023-05-10T13:17:25;9.30;;;6.53;;
7334;SDS011;3708;42.632;23.378;2023-05-10T13:19:52;8.03;;;5.87;;
7334;SDS011;3708;42.632;23.378;2023-05-10T13:22:23;8.00;;;5.83;;
7334;SDS011;3708;42.632;23.378;2023-05-10T13:24:51;6.43;;;5.30;;
7334;SDS011;3708;42.632;23.378;2023-05-10T13:27:18;13.10;;;7.77;;
7334;SDS011;3708;42.632;23.378;2023-05-10T13:29:45;6.73;;;5.93;;
7334;SDS011;3708;42.632;23.378;2023-05-10T13:32:19;7.10;;;5.37;;
7334;SDS011;3708;42.632;23.378;2023-05-10T13:34:47;9.40;;;6.43;;
7334;SDS011;3708;42.632;23.378;2023-05-10T13:37:15;10.57;;;6.37;;
7334;SDS011;3708;42.632;23.378;2023-05-10T13:39:53;8.43;;;6.50;;
7334;SDS011;3708;42.632;23.378;2023-05-10T13:42:21;8.13;;;5.70;;
7334;SDS011;3708;42.632;23.378;2023-05-10T13:44:58;10.67;;;6.57;;
7334;SDS011;3708;42.632;23.378;2023-05-10T13:47:34;7.00;;;6.30;;
7334;SDS011;3708;42.632;23.378;2023-05-10T13:50:03;7.43;;;6.50;;
7334;SDS011;3708;42.632;23.378;2023-05-10T13:52:44;7.20;;;6.47;;
7334;SDS011;3708;42.632;23.378;2023-05-10T13:55:12;9.73;;;6.87;;
7334;SDS011;3708;42.632;23.378;2023-05-10T13:57:49;9.57;;;6.50;;
7334;SDS011;3708;42.632;23.378;2023-05-10T14:00:26;10.10;;;6.10;;
7334;SDS011;3708;42.632;23.378;2023-05-10T14:03:02;10.00;;;6.50;;
7334;SDS011;3708;42.632;23.378;2023-05-10T14:05:34;10.83;;;7.20;;
7334;SDS011;3708;42.632;23.378;2023-05-10T14:08:04;11.63;;;6.83;;
7334;SDS011;3708;42.632;23.378;2023-05-10T14:10:34;9.80;;;6.10;;
7334;SDS011;3708;42.632;23.378;2023-05-10T14:13:01;8.20;;;6.27;;
7334;SDS011;3708;42.632;23.378;2023-05-10T14:15:28;10.60;;;7.23;;
7334;SDS011;3708;42.632;23.378;2023-05-10T14:17:55;13.13;;;6.80;;
7334;SDS011;3708;42.632;23.378;2023-05-10T14:20:24;12.13;;;7.07;;
7334;SDS011;3708;42.632;23.378;2023-05-10T14:22:50;8.67;;;6.00;;
7334;SDS011;3708;42.632;23.378;2023-05-10T14:25:17;10.03;;;6.63;;
7334;SDS011;3708;42.632;23.378;2023-05-10T14:27:44;11.60;;;6.73;;
7334;SDS011;3708;42.632;23.378;2023-05-10T14:30:12;12.63;;;6.40;;
7334;SDS011;3708;42.632;23.378;2023-05-10T14:32:40;8.03;;;5.97;;
7334;SDS011;3708;42.632;23.378;2023-05-10T14:35:07;9.07;;;6.33;;
7334;SDS011;3708;42.632;23.378;2023-05-10T14:37:35;9.20;;;6.60;;
7334;SDS011;3708;42.632;23.378;2023-05-10T14:40:02;13.87;;;7.17;;
7334;SDS011;3708;42.632;23.378;2023-05-10T14:42:32;11.63;;;6.77;;
7334;SDS011;3708;42.632;23.378;2023-05-10T14:44:59;9.43;;;6.53;;
7334;SDS011;3708;42.632;23.378;2023-05-10T14:47:30;11.27;;;7.73;;
7334;SDS011;3708;42.632;23.378;2023-05-10T14:50:21;15.80;;;7.57;;
7334;SDS011;3708;42.632;23.378;2023-05-10T14:52:51;8.37;;;6.83;;
7334;SDS011;3708;42.632;23.378;2023-05-10T14:55:18;8.23;;;6.63;;
7334;SDS011;3708;42.632;23.378;2023-05-10T14:58:08;8.47;;;6.33;;
7334;SDS011;3708;42.632;23.378;2023-05-10T15:01:01;10.67;;;6.20;;
7334;SDS011;3708;42.632;23.378;2023-05-10T15:03:29;9.67;;;6.37;;
7334;SDS011;3708;42.632;23.378;2023-05-10T15:05:59;15.23;;;6.63;;
7334;SDS011;3708;42.632;23.378;2023-05-10T15:08:29;8.57;;;5.87;;
7334;SDS011;3708;42.632;23.378;2023-05-10T15:10:57;14.13;;;6.60;;
7334;SDS011;3708;42.632;23.378;2023-05-10T15:13:31;8.33;;;6.57;;
7334;SDS011;3708;42.632;23.378;2023-05-10T15:16:01;8.77;;;6.27;;
7334;SDS011;3708;42.632;23.378;2023-05-10T15:19:00;10.97;;;6.60;;
7334;SDS011;3708;42.632;23.378;2023-05-10T15:21:27;9.90;;;6.60;;
7334;SDS011;3708;42.632;23.378;2023-05-10T15:24:02;11.03;;;6.37;;
7334;SDS011;3708;42.632;23.378;2023-05-10T15:26:36;9.93;;;6.17;;
7334;SDS011;3708;42.632;23.378;2023-05-10T15:29:05;9.30;;;6.10;;
7334;SDS011;3708;42.632;23.378;2023-05-10T15:31:35;9.53;;;6.77;;